sensor_id;sensor_type;location;lat;lon;timestamp;P1;durP1;ratioP1;P2;durP2;ratioP2
39502;SDS011;26970;49.900;10.774;2022-07-12T00:00:46;1.70;;;1.48;;
39502;SDS011;26970;49.900;10.774;2022-07-12T00:03:12;1.63;;;1.38;;
39502;SDS011;26970;49.900;10.774;2022-07-12T00:05:37;4.68;;;1.20;;
39502;SDS011;26970;49.900;10.774;2022-07-12T00:08:03;1.42;;;1.30;;
39502;SDS011;26970;49.900;10.774;2022-07-12T00:10:29;1.85;;;1.50;;
39502;SDS011;26970;49.900;10.774;2022-07-12T00:12:54;2.05;;;1.30;;
39502;SDS011;26970;49.900;10.774;2022-07-12T00:15:20;1.60;;;1.20;;
39502;SDS011;26970;49.900;10.774;2022-07-12T00:17:46;1.75;;;1.30;;
39502;SDS011;26970;49.900;10.774;2022-07-12T00:20:12;1.98;;;1.60;;
39502;SDS011;26970;49.900;10.774;2022-07-12T00:22:37;1.50;;;1.40;;
39502;SDS011;26970;49.900;10.774;2022-07-12T00:25:03;3.72;;;1.30;;
39502;SDS011;26970;49.900;10.774;2022-07-12T00:27:29;2.03;;;1.40;;
39502;SDS011;26970;49.900;10.774;2022-07-12T00:29:54;2.92;;;1.50;;
39502;SDS011;26970;49.900;10.774;2022-07-12T00:32:20;2.33;;;1.50;;
39502;SDS011;26970;49.900;10.774;2022-07-12T00:34:46;2.15;;;1.65;;
39502;SDS011;26970;49.900;10.774;2022-07-12T00:37:11;1.58;;;1.33;;
39502;SDS011;26970;49.900;10.774;2022-07-12T00:39:37;2.67;;;1.65;;
39502;SDS011;26970;49.900;10.774;2022-07-12T00:42:02;2.47;;;1.60;;
39502;SDS011;26970;49.900;10.774;2022-07-12T00:44:28;2.60;;;1.73;;
39502;SDS011;26970;49.900;10.774;2022-07-12T00:46:56;2.33;;;1.65;;
39502;SDS011;26970;49.900;10.774;2022-07-12T00:49:22;2.10;;;1.70;;
39502;SDS011;26970;49.900;10.774;2022-07-12T00:51:49;2.00;;;1.80;;
39502;SDS011;26970;49.900;10.774;2022-07-12T00:54:15;2.53;;;1.70;;
39502;SDS011;26970;49.900;10.774;2022-07-12T00:56:42;4.25;;;1.90;;
39502;SDS011;26970;49.900;10.774;2022-07-12T00:59:09;2.05;;;1.42;;
39502;SDS011;26970;49.900;10.774;2022-07-12T01:01:35;4.28;;;2.00;;
39502;SDS011;26970;49.900;10.774;2022-07-12T01:04:01;3.50;;;2.05;;
39502;SDS011;26970;49.900;10.774;2022-07-12T01:06:27;3.58;;;1.88;;
39502;SDS011;26970;49.900;10.774;2022-07-12T01:08:56;6.35;;;1.90;;
39502;SDS011;26970;49.900;10.774;2022-07-12T01:11:23;4.35;;;1.52;;
39502;SDS011;26970;49.900;10.774;2022-07-12T01:13:49;2.90;;;1.60;;
39502;SDS011;26970;49.900;10.774;2022-07-12T01:16:16;3.65;;;1.83;;
39502;SDS011;26970;49.900;10.774;2022-07-12T01:18:43;4.57;;;2.00;;
39502;SDS011;26970;49.900;10.774;2022-07-12T01:21:09;2.80;;;1.90;;
39502;SDS011;26970;49.900;10.774;2022-07-12T01:23:37;4.70;;;1.95;;
39502;SDS011;26970;49.900;10.774;2022-07-12T01:26:04;4.20;;;1.92;;
39502;SDS011;26970;49.900;10.774;2022-07-12T01:28:30;2.90;;;1.98;;
39502;SDS011;26970;49.900;10.774;2022-07-12T01:30:56;3.70;;;1.80;;
39502;SDS011;26970;49.900;10.774;2022-07-12T01:33:21;3.25;;;1.80;;
39502;SDS011;26970;49.900;10.774;2022-07-12T01:35:47;3.75;;;1.90;;
39502;SDS011;26970;49.900;10.774;2022-07-12T01:38:13;3.03;;;2.00;;
39502;SDS011;26970;49.900;10.774;2022-07-12T01:40:40;3.83;;;2.10;;
39502;SDS011;26970;49.900;10.774;2022-07-12T01:43:06;3.78;;;1.80;;
39502;SDS011;26970;49.900;10.774;2022-07-12T01:45:31;2.22;;;1.88;;
39502;SDS011;26970;49.900;10.774;2022-07-12T01:47:57;4.10;;;2.25;;
39502;SDS011;26970;49.900;10.774;2022-07-12T01:55:21;4.70;;;2.00;;
39502;SDS011;26970;49.900;10.774;2022-07-12T01:57:48;2.58;;;1.90;;
39502;SDS011;26970;49.900;10.774;2022-07-12T02:00:14;3.17;;;2.10;;
39502;SDS011;26970;49.900;10.774;2022-07-12T02:02:40;3.80;;;2.20;;
39502;SDS011;26970;49.900;10.774;2022-07-12T02:05:06;3.47;;;2.00;;
39502;SDS011;26970;49.900;10.774;2022-07-12T02:07:32;4.85;;;2.05;;
39502;SDS011;26970;49.900;10.774;2022-07-12T02:09:58;5.10;;;2.10;;
39502;SDS011;26970;49.900;10.774;2022-07-12T02:12:23;3.10;;;2.10;;
39502;SDS011;26970;49.900;10.774;2022-07-12T02:14:50;3.53;;;2.10;;
39502;SDS011;26970;49.900;10.774;2022-07-12T02:17:15;3.03;;;2.00;;
39502;SDS011;26970;49.900;10.774;2022-07-12T02:19:41;3.90;;;2.30;;
39502;SDS011;26970;49.900;10.774;2022-07-12T02:22:07;3.22;;;2.10;;
39502;SDS011;26970;49.900;10.774;2022-07-12T02:24:33;2.90;;;1.90;;
39502;SDS011;26970;49.900;10.774;2022-07-12T02:26:59;3.00;;;2.03;;
39502;SDS011;26970;49.900;10.774;2022-07-12T02:29:24;3.20;;;2.38;;
39502;SDS011;26970;49.900;10.774;2022-07-12T02:31:50;3.28;;;2.35;;
39502;SDS011;26970;49.900;10.774;2022-07-12T02:34:16;3.83;;;2.35;;
39502;SDS011;26970;49.900;10.774;2022-07-12T02:36:41;4.22;;;2.47;;
39502;SDS011;26970;49.900;10.774;2022-07-12T02:39:07;3.92;;;2.22;;
39502;SDS011;26970;49.900;10.774;2022-07-12T02:41:32;3.90;;;2.30;;
39502;SDS011;26970;49.900;10.774;2022-07-12T02:43:58;3.42;;;2.38;;
39502;SDS011;26970;49.900;10.774;2022-07-12T02:46:24;3.83;;;2.53;;
39502;SDS011;26970;49.900;10.774;2022-07-12T02:48:50;3.92;;;2.35;;
39502;SDS011;26970;49.900;10.774;2022-07-12T02:51:17;3.25;;;2.28;;
39502;SDS011;26970;49.900;10.774;2022-07-12T02:53:43;5.05;;;2.53;;
39502;SDS011;26970;49.900;10.774;2022-07-12T02:56:08;5.55;;;2.55;;
39502;SDS011;26970;49.900;10.774;2022-07-12T02:58:34;3.28;;;2.25;;
39502;SDS011;26970;49.900;10.774;2022-07-12T03:01:00;4.50;;;2.30;;
39502;SDS011;26970;49.900;10.774;2022-07-12T03:03:27;2.78;;;2.00;;
39502;SDS011;26970;49.900;10.774;2022-07-12T03:05:52;3.63;;;2.50;;
39502;SDS011;26970;49.900;10.774;2022-07-12T03:08:18;5.43;;;2.50;;
39502;SDS011;26970;49.900;10.774;2022-07-12T03:10:44;6.43;;;2.40;;
39502;SDS011;26970;49.900;10.774;2022-07-12T03:13:10;3.63;;;2.63;;
39502;SDS011;26970;49.900;10.774;2022-07-12T03:15:36;5.50;;;2.38;;
39502;SDS011;26970;49.900;10.774;2022-07-12T03:18:02;4.82;;;2.35;;
39502;SDS011;26970;49.900;10.774;2022-07-12T03:20:28;3.80;;;2.88;;
39502;SDS011;26970;49.900;10.774;2022-07-12T03:22:54;5.57;;;2.88;;
39502;SDS011;26970;49.900;10.774;2022-07-12T03:25:21;7.20;;;2.80;;
39502;SDS011;26970;49.900;10.774;2022-07-12T03:27:48;5.30;;;2.17;;
39502;SDS011;26970;49.900;10.774;2022-07-12T03:30:13;5.13;;;2.17;;
39502;SDS011;26970;49.900;10.774;2022-07-12T03:32:39;3.22;;;2.33;;
39502;SDS011;26970;49.900;10.774;2022-07-12T03:35:06;3.92;;;2.20;;
39502;SDS011;26970;49.900;10.774;2022-07-12T03:40:16;6.22;;;2.00;;
39502;SDS011;26970;49.900;10.774;2022-07-12T03:42:43;2.97;;;2.15;;
39502;SDS011;26970;49.900;10.774;2022-07-12T03:45:10;2.92;;;2.20;;
39502;SDS011;26970;49.900;10.774;2022-07-12T03:47:36;3.90;;;2.10;;
39502;SDS011;26970;49.900;10.774;2022-07-12T03:50:03;3.35;;;2.30;;
39502;SDS011;26970;49.900;10.774;2022-07-12T03:52:30;3.90;;;2.10;;
39502;SDS011;26970;49.900;10.774;2022-07-12T03:54:56;5.20;;;3.10;;
39502;SDS011;26970;49.900;10.774;2022-07-12T03:57:22;4.25;;;2.45;;
39502;SDS011;26970;49.900;10.774;2022-07-12T03:59:49;3.88;;;1.92;;
39502;SDS011;26970;49.900;10.774;2022-07-12T04:02:14;4.72;;;1.98;;
39502;SDS011;26970;49.900;10.774;2022-07-12T04:04:40;3.42;;;2.20;;
39502;SDS011;26970;49.900;10.774;2022-07-12T04:07:06;2.95;;;1.90;;
39502;SDS011;26970;49.900;10.774;2022-07-12T04:09:32;2.85;;;1.88;;
39502;SDS011;26970;49.900;10.774;2022-07-12T04:11:58;2.75;;;1.90;;
39502;SDS011;26970;49.900;10.774;2022-07-12T04:14:23;3.17;;;1.90;;
39502;SDS011;26970;49.900;10.774;2022-07-12T04:16:49;6.95;;;2.03;;
39502;SDS011;26970;49.900;10.774;2022-07-12T04:19:14;2.50;;;1.75;;
39502;SDS011;26970;49.900;10.774;2022-07-12T04:21:40;2.63;;;1.80;;
39502;SDS011;26970;49.900;10.774;2022-07-12T04:24:05;4.43;;;1.80;;
39502;SDS011;26970;49.900;10.774;2022-07-12T04:26:31;3.00;;;1.80;;
39502;SDS011;26970;49.900;10.774;2022-07-12T04:28:57;2.42;;;1.83;;
39502;SDS011;26970;49.900;10.774;2022-07-12T04:31:23;4.82;;;1.70;;
39502;SDS011;26970;49.900;10.774;2022-07-12T04:33:49;5.18;;;2.10;;
39502;SDS011;26970;49.900;10.774;2022-07-12T04:36:14;4.22;;;2.63;;
39502;SDS011;26970;49.900;10.774;2022-07-12T04:38:40;5.90;;;2.65;;
39502;SDS011;26970;49.900;10.774;2022-07-12T04:41:06;7.15;;;2.60;;
39502;SDS011;26970;49.900;10.774;2022-07-12T04:43:32;4.72;;;2.60;;
39502;SDS011;26970;49.900;10.774;2022-07-12T04:46:04;7.55;;;2.80;;
39502;SDS011;26970;49.900;10.774;2022-07-12T04:48:31;2.97;;;2.15;;
39502;SDS011;26970;49.900;10.774;2022-07-12T04:50:57;3.65;;;2.10;;
39502;SDS011;26970;49.900;10.774;2022-07-12T04:53:22;5.47;;;2.30;;
39502;SDS011;26970;49.900;10.774;2022-07-12T04:55:48;2.85;;;1.90;;
39502;SDS011;26970;49.900;10.774;2022-07-12T04:58:13;3.13;;;1.98;;
39502;SDS011;26970;49.900;10.774;2022-07-12T05:00:39;3.22;;;2.00;;
39502;SDS011;26970;49.900;10.774;2022-07-12T05:03:05;3.78;;;1.90;;
39502;SDS011;26970;49.900;10.774;2022-07-12T05:05:30;2.88;;;2.10;;
39502;SDS011;26970;49.900;10.774;2022-07-12T05:07:56;3.90;;;1.90;;
39502;SDS011;26970;49.900;10.774;2022-07-12T05:10:21;2.97;;;2.05;;
39502;SDS011;26970;49.900;10.774;2022-07-12T05:12:47;4.55;;;2.33;;
39502;SDS011;26970;49.900;10.774;2022-07-12T05:15:12;6.07;;;2.10;;
39502;SDS011;26970;49.900;10.774;2022-07-12T05:17:38;2.85;;;1.92;;
39502;SDS011;26970;49.900;10.774;2022-07-12T05:20:03;4.15;;;2.30;;
39502;SDS011;26970;49.900;10.774;2022-07-12T05:22:30;6.50;;;2.42;;
39502;SDS011;26970;49.900;10.774;2022-07-12T05:24:55;5.32;;;2.67;;
39502;SDS011;26970;49.900;10.774;2022-07-12T05:27:20;3.90;;;2.60;;
39502;SDS011;26970;49.900;10.774;2022-07-12T05:29:46;9.60;;;2.97;;
39502;SDS011;26970;49.900;10.774;2022-07-12T05:32:11;7.03;;;2.83;;
39502;SDS011;26970;49.900;10.774;2022-07-12T05:34:37;8.82;;;2.70;;
39502;SDS011;26970;49.900;10.774;2022-07-12T05:37:03;6.70;;;2.45;;
39502;SDS011;26970;49.900;10.774;2022-07-12T05:39:29;3.90;;;2.50;;
39502;SDS011;26970;49.900;10.774;2022-07-12T05:41:54;3.65;;;2.40;;
39502;SDS011;26970;49.900;10.774;2022-07-12T05:44:21;3.65;;;2.47;;
39502;SDS011;26970;49.900;10.774;2022-07-12T05:46:47;4.38;;;2.55;;
39502;SDS011;26970;49.900;10.774;2022-07-12T05:49:13;3.20;;;2.40;;
39502;SDS011;26970;49.900;10.774;2022-07-12T05:51:39;3.80;;;2.10;;
39502;SDS011;26970;49.900;10.774;2022-07-12T05:54:23;6.95;;;2.20;;
39502;SDS011;26970;49.900;10.774;2022-07-12T05:56:48;2.95;;;2.30;;
39502;SDS011;26970;49.900;10.774;2022-07-12T05:59:16;4.45;;;2.50;;
39502;SDS011;26970;49.900;10.774;2022-07-12T06:01:44;6.03;;;2.78;;
39502;SDS011;26970;49.900;10.774;2022-07-12T06:04:10;6.88;;;3.53;;
39502;SDS011;26970;49.900;10.774;2022-07-12T06:06:35;5.53;;;3.67;;
39502;SDS011;26970;49.900;10.774;2022-07-12T06:09:01;6.00;;;4.20;;
39502;SDS011;26970;49.900;10.774;2022-07-12T06:11:27;6.55;;;3.40;;
39502;SDS011;26970;49.900;10.774;2022-07-12T06:13:53;8.02;;;3.45;;
39502;SDS011;26970;49.900;10.774;2022-07-12T06:16:18;4.85;;;3.67;;
39502;SDS011;26970;49.900;10.774;2022-07-12T06:18:44;6.03;;;3.42;;
39502;SDS011;26970;49.900;10.774;2022-07-12T06:21:09;8.80;;;3.72;;
39502;SDS011;26970;49.900;10.774;2022-07-12T06:23:35;4.20;;;3.00;;
39502;SDS011;26970;49.900;10.774;2022-07-12T06:26:01;4.28;;;3.03;;
39502;SDS011;26970;49.900;10.774;2022-07-12T06:28:26;5.97;;;3.30;;
39502;SDS011;26970;49.900;10.774;2022-07-12T06:30:52;4.88;;;3.70;;
39502;SDS011;26970;49.900;10.774;2022-07-12T06:33:18;6.40;;;3.13;;
39502;SDS011;26970;49.900;10.774;2022-07-12T06:35:43;4.50;;;3.08;;
39502;SDS011;26970;49.900;10.774;2022-07-12T06:38:09;4.78;;;3.45;;
39502;SDS011;26970;49.900;10.774;2022-07-12T06:40:34;7.45;;;3.58;;
39502;SDS011;26970;49.900;10.774;2022-07-12T06:43:00;4.32;;;3.35;;
39502;SDS011;26970;49.900;10.774;2022-07-12T06:45:25;4.45;;;3.13;;
39502;SDS011;26970;49.900;10.774;2022-07-12T06:47:51;5.35;;;3.40;;
39502;SDS011;26970;49.900;10.774;2022-07-12T06:50:18;4.70;;;3.13;;
39502;SDS011;26970;49.900;10.774;2022-07-12T06:52:44;4.03;;;2.92;;
39502;SDS011;26970;49.900;10.774;2022-07-12T06:55:10;3.55;;;2.65;;
39502;SDS011;26970;49.900;10.774;2022-07-12T06:57:35;3.83;;;2.95;;
39502;SDS011;26970;49.900;10.774;2022-07-12T07:00:02;8.85;;;2.83;;
39502;SDS011;26970;49.900;10.774;2022-07-12T07:02:29;3.97;;;3.00;;
39502;SDS011;26970;49.900;10.774;2022-07-12T07:04:55;4.35;;;2.83;;
39502;SDS011;26970;49.900;10.774;2022-07-12T07:07:21;3.25;;;2.60;;
39502;SDS011;26970;49.900;10.774;2022-07-12T07:09:46;5.45;;;2.40;;
39502;SDS011;26970;49.900;10.774;2022-07-12T07:12:12;2.95;;;2.30;;
39502;SDS011;26970;49.900;10.774;2022-07-12T07:14:37;3.08;;;2.40;;
39502;SDS011;26970;49.900;10.774;2022-07-12T07:17:03;3.58;;;2.35;;
39502;SDS011;26970;49.900;10.774;2022-07-12T07:19:29;5.43;;;1.92;;
39502;SDS011;26970;49.900;10.774;2022-07-12T07:21:54;4.60;;;2.20;;
39502;SDS011;26970;49.900;10.774;2022-07-12T07:24:21;4.82;;;2.13;;
39502;SDS011;26970;49.900;10.774;2022-07-12T07:26:47;2.40;;;1.80;;
39502;SDS011;26970;49.900;10.774;2022-07-12T07:29:13;3.70;;;2.20;;
39502;SDS011;26970;49.900;10.774;2022-07-12T07:31:57;5.07;;;2.42;;
39502;SDS011;26970;49.900;10.774;2022-07-12T07:34:23;4.40;;;2.30;;
39502;SDS011;26970;49.900;10.774;2022-07-12T07:36:49;3.00;;;1.80;;
39502;SDS011;26970;49.900;10.774;2022-07-12T07:39:15;2.90;;;2.13;;
39502;SDS011;26970;49.900;10.774;2022-07-12T07:41:41;2.72;;;1.80;;
39502;SDS011;26970;49.900;10.774;2022-07-12T07:44:06;2.20;;;1.63;;
39502;SDS011;26970;49.900;10.774;2022-07-12T07:46:32;2.20;;;1.50;;
39502;SDS011;26970;49.900;10.774;2022-07-12T07:48:57;2.03;;;1.50;;
39502;SDS011;26970;49.900;10.774;2022-07-12T07:51:23;2.22;;;1.70;;
39502;SDS011;26970;49.900;10.774;2022-07-12T07:53:49;2.25;;;1.70;;
39502;SDS011;26970;49.900;10.774;2022-07-12T07:56:14;2.70;;;1.70;;
39502;SDS011;26970;49.900;10.774;2022-07-12T07:58:40;2.30;;;1.70;;
39502;SDS011;26970;49.900;10.774;2022-07-12T08:01:05;3.03;;;1.70;;
39502;SDS011;26970;49.900;10.774;2022-07-12T08:03:31;1.60;;;1.50;;
39502;SDS011;26970;49.900;10.774;2022-07-12T08:05:56;3.05;;;1.42;;
39502;SDS011;26970;49.900;10.774;2022-07-12T08:08:23;1.85;;;1.50;;
39502;SDS011;26970;49.900;10.774;2022-07-12T08:10:50;2.33;;;1.75;;
39502;SDS011;26970;49.900;10.774;2022-07-12T08:13:15;2.05;;;1.58;;
39502;SDS011;26970;49.900;10.774;2022-07-12T08:15:41;1.65;;;1.52;;
39502;SDS011;26970;49.900;10.774;2022-07-12T08:18:07;2.17;;;1.60;;
39502;SDS011;26970;49.900;10.774;2022-07-12T08:20:32;1.83;;;1.60;;
39502;SDS011;26970;49.900;10.774;2022-07-12T08:22:58;2.58;;;1.50;;
39502;SDS011;26970;49.900;10.774;2022-07-12T08:25:24;4.43;;;1.70;;
39502;SDS011;26970;49.900;10.774;2022-07-12T08:27:50;3.33;;;1.42;;
39502;SDS011;26970;49.900;10.774;2022-07-12T08:30:16;1.50;;;1.38;;
39502;SDS011;26970;49.900;10.774;2022-07-12T08:32:44;1.67;;;1.30;;
39502;SDS011;26970;49.900;10.774;2022-07-12T08:35:11;2.90;;;1.60;;
39502;SDS011;26970;49.900;10.774;2022-07-12T08:37:37;2.00;;;1.48;;
39502;SDS011;26970;49.900;10.774;2022-07-12T08:40:02;1.52;;;1.40;;
39502;SDS011;26970;49.900;10.774;2022-07-12T08:42:29;1.95;;;1.45;;
39502;SDS011;26970;49.900;10.774;2022-07-12T08:44:55;2.75;;;1.30;;
39502;SDS011;26970;49.900;10.774;2022-07-12T08:47:21;1.30;;;1.20;;
39502;SDS011;26970;49.900;10.774;2022-07-12T08:52:39;2.80;;;1.40;;
39502;SDS011;26970;49.900;10.774;2022-07-12T08:57:44;3.35;;;1.40;;
39502;SDS011;26970;49.900;10.774;2022-07-12T09:00:10;1.77;;;1.35;;
39502;SDS011;26970;49.900;10.774;2022-07-12T09:02:43;1.77;;;1.30;;
39502;SDS011;26970;49.900;10.774;2022-07-12T09:05:11;2.25;;;1.45;;
39502;SDS011;26970;49.900;10.774;2022-07-12T09:07:37;1.60;;;1.33;;
39502;SDS011;26970;49.900;10.774;2022-07-12T09:10:04;2.75;;;1.20;;
39502;SDS011;26970;49.900;10.774;2022-07-12T09:12:30;2.65;;;1.38;;
39502;SDS011;26970;49.900;10.774;2022-07-12T09:18:00;2.25;;;1.20;;
39502;SDS011;26970;49.900;10.774;2022-07-12T09:20:28;1.75;;;1.48;;
39502;SDS011;26970;49.900;10.774;2022-07-12T09:22:59;2.25;;;1.20;;
39502;SDS011;26970;49.900;10.774;2022-07-12T09:25:28;3.20;;;1.40;;
39502;SDS011;26970;49.900;10.774;2022-07-12T09:27:54;1.40;;;1.30;;
39502;SDS011;26970;49.900;10.774;2022-07-12T09:30:23;2.47;;;1.35;;
39502;SDS011;26970;49.900;10.774;2022-07-12T09:33:00;2.35;;;1.42;;
39502;SDS011;26970;49.900;10.774;2022-07-12T09:41:27;1.38;;;1.20;;
39502;SDS011;26970;49.900;10.774;2022-07-12T09:43:53;2.85;;;1.33;;
39502;SDS011;26970;49.900;10.774;2022-07-12T09:46:18;2.13;;;1.30;;
39502;SDS011;26970;49.900;10.774;2022-07-12T09:48:45;1.67;;;1.25;;
39502;SDS011;26970;49.900;10.774;2022-07-12T09:51:15;1.20;;;1.08;;
39502;SDS011;26970;49.900;10.774;2022-07-12T09:53:48;2.20;;;0.90;;
39502;SDS011;26970;49.900;10.774;2022-07-12T09:56:17;1.10;;;1.00;;
39502;SDS011;26970;49.900;10.774;2022-07-12T10:01:24;1.45;;;1.20;;
39502;SDS011;26970;49.900;10.774;2022-07-12T10:03:50;0.88;;;0.88;;
39502;SDS011;26970;49.900;10.774;2022-07-12T10:06:29;1.52;;;1.00;;
39502;SDS011;26970;49.900;10.774;2022-07-12T10:08:55;1.80;;;1.35;;
39502;SDS011;26970;49.900;10.774;2022-07-12T10:11:22;0.93;;;0.90;;
39502;SDS011;26970;49.900;10.774;2022-07-12T10:13:48;1.38;;;1.13;;
39502;SDS011;26970;49.900;10.774;2022-07-12T10:16:14;2.80;;;1.20;;
39502;SDS011;26970;49.900;10.774;2022-07-12T10:18:41;5.35;;;2.53;;
39502;SDS011;26970;49.900;10.774;2022-07-12T10:21:19;2.35;;;1.27;;
39502;SDS011;26970;49.900;10.774;2022-07-12T10:23:46;1.27;;;1.17;;
39502;SDS011;26970;49.900;10.774;2022-07-12T10:28:54;1.15;;;1.05;;
39502;SDS011;26970;49.900;10.774;2022-07-12T10:31:29;1.88;;;1.30;;
39502;SDS011;26970;49.900;10.774;2022-07-12T10:34:11;1.17;;;1.08;;
39502;SDS011;26970;49.900;10.774;2022-07-12T10:39:25;0.90;;;0.90;;
39502;SDS011;26970;49.900;10.774;2022-07-12T10:42:13;1.27;;;1.13;;
39502;SDS011;26970;49.900;10.774;2022-07-12T10:44:40;2.25;;;0.98;;
39502;SDS011;26970;49.900;10.774;2022-07-12T10:47:09;1.30;;;1.13;;
39502;SDS011;26970;49.900;10.774;2022-07-12T10:49:37;1.90;;;1.27;;
39502;SDS011;26970;49.900;10.774;2022-07-12T10:54:40;2.20;;;1.10;;
39502;SDS011;26970;49.900;10.774;2022-07-12T10:57:07;1.10;;;1.00;;
39502;SDS011;26970;49.900;10.774;2022-07-12T10:59:34;3.70;;;1.23;;
39502;SDS011;26970;49.900;10.774;2022-07-12T11:02:01;3.83;;;1.00;;
39502;SDS011;26970;49.900;10.774;2022-07-12T11:04:27;1.80;;;1.08;;
39502;SDS011;26970;49.900;10.774;2022-07-12T11:06:53;1.45;;;1.20;;
39502;SDS011;26970;49.900;10.774;2022-07-12T11:09:24;0.95;;;0.90;;
39502;SDS011;26970;49.900;10.774;2022-07-12T11:11:50;1.92;;;1.00;;
39502;SDS011;26970;49.900;10.774;2022-07-12T11:16:50;1.85;;;1.02;;
39502;SDS011;26970;49.900;10.774;2022-07-12T11:19:20;1.58;;;1.08;;
39502;SDS011;26970;49.900;10.774;2022-07-12T11:21:50;2.97;;;1.10;;
39502;SDS011;26970;49.900;10.774;2022-07-12T11:24:27;1.02;;;1.00;;
39502;SDS011;26970;49.900;10.774;2022-07-12T11:26:57;1.10;;;1.00;;
39502;SDS011;26970;49.900;10.774;2022-07-12T11:29:24;1.20;;;1.10;;
39502;SDS011;26970;49.900;10.774;2022-07-12T11:31:58;1.05;;;0.90;;
39502;SDS011;26970;49.900;10.774;2022-07-12T11:34:26;0.98;;;0.98;;
39502;SDS011;26970;49.900;10.774;2022-07-12T11:36:58;1.17;;;0.88;;
39502;SDS011;26970;49.900;10.774;2022-07-12T11:39:35;1.23;;;1.08;;
39502;SDS011;26970;49.900;10.774;2022-07-12T11:42:02;2.22;;;1.00;;
39502;SDS011;26970;49.900;10.774;2022-07-12T11:47:11;8.13;;;1.67;;
39502;SDS011;26970;49.900;10.774;2022-07-12T11:49:44;2.60;;;0.90;;
39502;SDS011;26970;49.900;10.774;2022-07-12T11:52:17;1.10;;;1.00;;
39502;SDS011;26970;49.900;10.774;2022-07-12T11:54:44;2.20;;;1.00;;
39502;SDS011;26970;49.900;10.774;2022-07-12T11:57:11;1.10;;;1.00;;
39502;SDS011;26970;49.900;10.774;2022-07-12T11:59:37;1.20;;;1.10;;
39502;SDS011;26970;49.900;10.774;2022-07-12T12:02:06;1.42;;;0.95;;
39502;SDS011;26970;49.900;10.774;2022-07-12T12:04:46;3.88;;;0.93;;
39502;SDS011;26970;49.900;10.774;2022-07-12T12:07:13;3.13;;;1.00;;
39502;SDS011;26970;49.900;10.774;2022-07-12T12:12:48;2.10;;;1.00;;
39502;SDS011;26970;49.900;10.774;2022-07-12T12:15:17;6.00;;;1.10;;
39502;SDS011;26970;49.900;10.774;2022-07-12T12:18:05;1.08;;;0.95;;
39502;SDS011;26970;49.900;10.774;2022-07-12T12:23:03;1.85;;;0.93;;
39502;SDS011;26970;49.900;10.774;2022-07-12T12:25:42;3.75;;;1.20;;
39502;SDS011;26970;49.900;10.774;2022-07-12T12:28:08;1.20;;;1.00;;
39502;SDS011;26970;49.900;10.774;2022-07-12T12:30:38;1.48;;;1.38;;
39502;SDS011;26970;49.900;10.774;2022-07-12T12:33:32;0.80;;;0.80;;
39502;SDS011;26970;49.900;10.774;2022-07-12T12:36:11;1.10;;;1.00;;
39502;SDS011;26970;49.900;10.774;2022-07-12T12:38:41;1.88;;;1.30;;
39502;SDS011;26970;49.900;10.774;2022-07-12T12:41:07;1.23;;;1.15;;
39502;SDS011;26970;49.900;10.774;2022-07-12T12:43:33;0.80;;;0.80;;
39502;SDS011;26970;49.900;10.774;2022-07-12T12:45:59;1.85;;;1.15;;
39502;SDS011;26970;49.900;10.774;2022-07-12T12:48:26;2.55;;;0.85;;
39502;SDS011;26970;49.900;10.774;2022-07-12T12:50:53;0.88;;;0.88;;
39502;SDS011;26970;49.900;10.774;2022-07-12T12:53:27;0.82;;;0.82;;
39502;SDS011;26970;49.900;10.774;2022-07-12T12:55:53;0.98;;;0.95;;
39502;SDS011;26970;49.900;10.774;2022-07-12T12:58:21;3.03;;;0.90;;
39502;SDS011;26970;49.900;10.774;2022-07-12T13:00:49;1.33;;;1.00;;
39502;SDS011;26970;49.900;10.774;2022-07-12T13:03:17;1.00;;;0.93;;
39502;SDS011;26970;49.900;10.774;2022-07-12T13:05:44;1.88;;;1.00;;
39502;SDS011;26970;49.900;10.774;2022-07-12T13:08:10;2.38;;;1.02;;
39502;SDS011;26970;49.900;10.774;2022-07-12T13:10:37;1.73;;;0.75;;
39502;SDS011;26970;49.900;10.774;2022-07-12T13:13:04;2.15;;;0.70;;
39502;SDS011;26970;49.900;10.774;2022-07-12T13:15:31;1.55;;;1.02;;
39502;SDS011;26970;49.900;10.774;2022-07-12T13:17:57;1.10;;;1.00;;
39502;SDS011;26970;49.900;10.774;2022-07-12T13:20:23;0.93;;;0.90;;
39502;SDS011;26970;49.900;10.774;2022-07-12T13:22:50;1.35;;;1.00;;
39502;SDS011;26970;49.900;10.774;2022-07-12T13:25:16;4.57;;;1.00;;
39502;SDS011;26970;49.900;10.774;2022-07-12T13:27:42;2.88;;;1.15;;
39502;SDS011;26970;49.900;10.774;2022-07-12T13:30:09;1.00;;;0.95;;
39502;SDS011;26970;49.900;10.774;2022-07-12T13:32:36;0.80;;;0.80;;
39502;SDS011;26970;49.900;10.774;2022-07-12T13:35:03;1.35;;;0.77;;
39502;SDS011;26970;49.900;10.774;2022-07-12T13:37:30;2.22;;;1.00;;
39502;SDS011;26970;49.900;10.774;2022-07-12T13:39:55;1.10;;;1.00;;
39502;SDS011;26970;49.900;10.774;2022-07-12T13:42:44;0.90;;;0.90;;
39502;SDS011;26970;49.900;10.774;2022-07-12T13:45:14;1.65;;;0.98;;
39502;SDS011;26970;49.900;10.774;2022-07-12T13:47:41;3.70;;;1.00;;
39502;SDS011;26970;49.900;10.774;2022-07-12T13:50:09;1.08;;;1.00;;
39502;SDS011;26970;49.900;10.774;2022-07-12T13:52:35;1.48;;;0.90;;
39502;SDS011;26970;49.900;10.774;2022-07-12T13:55:01;2.85;;;1.10;;
39502;SDS011;26970;49.900;10.774;2022-07-12T13:57:27;1.05;;;0.88;;
39502;SDS011;26970;49.900;10.774;2022-07-12T13:59:53;1.17;;;1.00;;
39502;SDS011;26970;49.900;10.774;2022-07-12T14:02:18;2.38;;;1.00;;
39502;SDS011;26970;49.900;10.774;2022-07-12T14:04:44;0.80;;;0.80;;
39502;SDS011;26970;49.900;10.774;2022-07-12T14:07:10;2.75;;;1.00;;
39502;SDS011;26970;49.900;10.774;2022-07-12T14:09:36;1.42;;;1.00;;
39502;SDS011;26970;49.900;10.774;2022-07-12T14:12:01;5.45;;;1.23;;
39502;SDS011;26970;49.900;10.774;2022-07-12T14:14:28;1.85;;;1.35;;
39502;SDS011;26970;49.900;10.774;2022-07-12T14:17:13;0.80;;;0.80;;
39502;SDS011;26970;49.900;10.774;2022-07-12T14:19:38;1.00;;;1.00;;
39502;SDS011;26970;49.900;10.774;2022-07-12T14:22:04;0.70;;;0.70;;
39502;SDS011;26970;49.900;10.774;2022-07-12T14:24:37;2.03;;;0.80;;
39502;SDS011;26970;49.900;10.774;2022-07-12T14:27:02;1.67;;;1.00;;
39502;SDS011;26970;49.900;10.774;2022-07-12T14:29:28;1.88;;;0.90;;
39502;SDS011;26970;49.900;10.774;2022-07-12T14:31:54;0.82;;;0.80;;
39502;SDS011;26970;49.900;10.774;2022-07-12T14:34:21;1.48;;;0.80;;
39502;SDS011;26970;49.900;10.774;2022-07-12T14:36:47;1.15;;;0.73;;
39502;SDS011;26970;49.900;10.774;2022-07-12T14:39:13;1.67;;;1.23;;
39502;SDS011;26970;49.900;10.774;2022-07-12T14:41:38;1.70;;;0.80;;
39502;SDS011;26970;49.900;10.774;2022-07-12T14:44:04;0.82;;;0.82;;
39502;SDS011;26970;49.900;10.774;2022-07-12T14:46:32;1.25;;;1.00;;
39502;SDS011;26970;49.900;10.774;2022-07-12T14:48:58;2.88;;;0.88;;
39502;SDS011;26970;49.900;10.774;2022-07-12T14:51:23;3.70;;;0.98;;
39502;SDS011;26970;49.900;10.774;2022-07-12T14:53:49;1.88;;;1.00;;
39502;SDS011;26970;49.900;10.774;2022-07-12T14:56:17;2.30;;;0.90;;
39502;SDS011;26970;49.900;10.774;2022-07-12T14:58:45;0.77;;;0.73;;
39502;SDS011;26970;49.900;10.774;2022-07-12T15:01:11;0.90;;;0.90;;
39502;SDS011;26970;49.900;10.774;2022-07-12T15:03:37;4.47;;;1.10;;
39502;SDS011;26970;49.900;10.774;2022-07-12T15:06:02;2.30;;;0.90;;
39502;SDS011;26970;49.900;10.774;2022-07-12T15:08:28;0.85;;;0.85;;
39502;SDS011;26970;49.900;10.774;2022-07-12T15:10:54;1.23;;;1.00;;
39502;SDS011;26970;49.900;10.774;2022-07-12T15:13:21;1.55;;;0.80;;
39502;SDS011;26970;49.900;10.774;2022-07-12T15:15:46;1.20;;;1.08;;